This is the latest recevied weather packets stored in our database for station/object PP5CFL-13. If no packets are shown the sender has not sent any weather packets the latest 10 day(s).
| Time | Temp. | Humidity | Pressure | Rain* | Wind** | Luminosity | Snow |
|---|---|---|---|---|---|---|---|
| 1777756420 | 22.78° C | 74% | 1020.6 hPa | - | - | - | - |
| 1777756120 | 22.78° C | 76% | 1020.5 hPa | - | - | - | - |
| 1777755820 | 22.78° C | 77% | 1020.4 hPa | - | - | - | - |
| 1777755520 | 22.78° C | 77% | 1020 hPa | - | - | - | - |
| 1777755220 | 23.33° C | 80% | 1020.2 hPa | - | - | - | - |
| 1777754920 | 23.33° C | 78% | 1020.2 hPa | - | - | - | - |
| 1777754620 | 23.33° C | 80% | 1020.2 hPa | - | - | - | - |
| 1777754320 | 23.33° C | 79% | 1019.9 hPa | - | - | - | - |
| 1777754020 | 23.33° C | 80% | 1019.9 hPa | - | - | - | - |
| 1777753720 | 23.89° C | 79% | 1019.7 hPa | - | - | - | - |
| 1777753420 | 23.89° C | 80% | 1019.6 hPa | - | - | - | - |
| 1777753120 | 24.44° C | 80% | 1019.5 hPa | - | - | - | - |
| 1777752820 | 24.44° C | 80% | 1019.3 hPa | - | - | - | - |
| 1777752520 | 23.89° C | 80% | 1019.4 hPa | - | - | - | - |
| 1777752220 | 23.89° C | 81% | 1019.1 hPa | - | - | - | - |
| 1777751920 | 23.89° C | 82% | 1019 hPa | - | - | - | - |
| 1777751620 | 25.56° C | 75% | 1018.7 hPa | - | - | - | - |
| 1777751320 | 25° C | 76% | 1018.4 hPa | - | - | - | - |
| 1777751020 | 25.56° C | 74% | 1018.4 hPa | - | - | - | - |
| 1777750720 | 25.56° C | 73% | 1018.5 hPa | - | - | - | - |
| 1777750420 | 25.56° C | 73% | 1018.3 hPa | - | - | - | - |
| 1777750120 | 25.56° C | 73% | 1018.1 hPa | - | - | - | - |
| 1777749820 | 25.56° C | 73% | 1018.1 hPa | - | - | - | - |
| 1777749520 | 25° C | 75% | 1017.9 hPa | - | - | - | - |
| 1777749220 | 25° C | 74% | 1018 hPa | - | - | - | - |
* Rain since midnight (hover to see other rain measurements)
** Current wind speed in m/s (hover to see current wind gust speed)